Gh Harmony — VRNJ6 — position and weather

sailwx.info

Track history (hours):
 
Tides and Currents Weather Stations Pressure Air Temp Water Temp Dewpoint Dewpoint Depression Visibility Wind Speed Wind Dir Waves Ship Positions

Gh Harmony

Last reported at 2017-Sep-17 13:06 UTC. Time now 2017-Sep-24 05:09 UTC.
Position S 04°18' E 128°30'.

Length 229 m; draft 8.1 m.

Type: Cargo ship. MMSI: 477848100.

Date/timePositionNaut miles runAvg speedWind from/ knotsBaromVisibWave heightAir tempDewpointWater temp
2017-Sep-17 13:06S 04°18' E 128°30'211.4
2017-Sep-17 12:53S 04°16' E 128°28'511.3
2017-Sep-17 12:28S 04°14' E 128°24'511.4
2017-Sep-17 12:00S 04°11' E 128°19'611.4
2017-Sep-17 11:31S 04°08' E 128°14'611.3
2017-Sep-17 11:00S 04°05' E 128°10'510.8
2017-Sep-17 10:30S 04°01' E 128°05'510.7
2017-Sep-17 10:01S 03°59' E 128°01'510.8
2017-Sep-17 09:30S 03°56' E 127°56'610.8
2017-Sep-17 09:00S 03°52' E 127°52'510.9
2017-Sep-17 08:31S 03°50' E 127°47'510.7
2017-Sep-17 08:01S 03°46' E 127°44'510.8
2017-Sep-17 07:30S 03°42' E 127°40'510.6
2017-Sep-17 07:01S 03°38' E 127°37'610.5
2017-Sep-17 06:28S 03°34' E 127°33'510.6
2017-Sep-17 06:00S 03°30' E 127°30'611.1
2017-Sep-17 05:26S 03°25' E 127°26'410.2
2017-Sep-17 05:00S 03°21' E 127°24'510.0
2017-Sep-17 04:30S 03°16' E 127°22'  
2017-Sep-11 03:47N 22°21' E 119°49'311.4
2017-Sep-11 03:30N 22°25' E 119°50'611.2
2017-Sep-11 03:00N 22°30' E 119°50'611.5
2017-Sep-11 02:26N 22°37' E 119°51'511.4
2017-Sep-11 01:58N 22°42' E 119°51'511.4
2017-Sep-11 01:30N 22°47' E 119°51'12611.7
2017-Sep-10 14:43N 24°45' E 120°41'  
Track history (hours):
 
Tides and Currents Weather Stations Pressure Air Temp Water Temp Dewpoint Dewpoint Depression Visibility Wind Speed Wind Dir Waves Ship Positions

Gh Harmony

Last reported at 2017-Sep-17 13:06 UTC. Time now 2017-Sep-24 05:09 UTC.
Position S 04°18' E 128°30'.

Length 229 m; draft 8.1 m.

Type: Cargo ship. MMSI: 477848100.

Date/timePositionNaut miles runAvg speedWind from/ knotsBaromVisibWave heightAir tempDewpointWater temp
2017-Sep-17 13:06S 04°18' E 128°30'211.4
2017-Sep-17 12:53S 04°16' E 128°28'511.3
2017-Sep-17 12:28S 04°14' E 128°24'511.4
2017-Sep-17 12:00S 04°11' E 128°19'611.4
2017-Sep-17 11:31S 04°08' E 128°14'611.3
2017-Sep-17 11:00S 04°05' E 128°10'510.8
2017-Sep-17 10:30S 04°01' E 128°05'510.7
2017-Sep-17 10:01S 03°59' E 128°01'510.8
2017-Sep-17 09:30S 03°56' E 127°56'610.8
2017-Sep-17 09:00S 03°52' E 127°52'510.9
2017-Sep-17 08:31S 03°50' E 127°47'510.7
2017-Sep-17 08:01S 03°46' E 127°44'510.8
2017-Sep-17 07:30S 03°42' E 127°40'510.6
2017-Sep-17 07:01S 03°38' E 127°37'610.5
2017-Sep-17 06:28S 03°34' E 127°33'510.6
2017-Sep-17 06:00S 03°30' E 127°30'611.1
2017-Sep-17 05:26S 03°25' E 127°26'410.2
2017-Sep-17 05:00S 03°21' E 127°24'510.0
2017-Sep-17 04:30S 03°16' E 127°22'  
2017-Sep-11 03:47N 22°21' E 119°49'311.4
2017-Sep-11 03:30N 22°25' E 119°50'611.2
2017-Sep-11 03:00N 22°30' E 119°50'611.5
2017-Sep-11 02:26N 22°37' E 119°51'511.4
2017-Sep-11 01:58N 22°42' E 119°51'511.4
2017-Sep-11 01:30N 22°47' E 119°51'12611.7
2017-Sep-10 14:43N 24°45' E 120°41'  

Dump ship's entire track history